createdAt,value
2017-03-19T00:00:11.655Z,931.61
2017-03-19T00:00:25.743Z,931.61
2017-03-19T00:00:39.854Z,931.56
2017-03-19T00:00:53.967Z,931.58
2017-03-19T00:01:08.091Z,931.58
2017-03-19T00:01:22.271Z,931.65
2017-03-19T00:01:36.431Z,931.73
2017-03-19T00:01:50.713Z,931.64
2017-03-19T00:02:04.807Z,931.66
2017-03-19T00:02:18.945Z,931.65
2017-03-19T00:02:33.041Z,931.61
2017-03-19T00:02:47.155Z,931.66
2017-03-19T00:03:01.250Z,931.65
2017-03-19T00:03:15.331Z,931.68
2017-03-19T00:03:29.474Z,931.69
2017-03-19T00:03:43.598Z,931.69
2017-03-19T00:03:57.717Z,931.69
2017-03-19T00:04:11.867Z,931.66
2017-03-19T00:04:26.010Z,931.64
2017-03-19T00:04:40.126Z,931.65
2017-03-19T00:04:54.270Z,931.7
2017-03-19T00:05:08.378Z,931.66
2017-03-19T00:05:22.511Z,931.65
2017-03-19T00:05:36.668Z,931.67
2017-03-19T00:05:50.760Z,931.65
2017-03-19T00:06:04.815Z,931.71
2017-03-19T00:06:18.933Z,931.68
2017-03-19T00:06:33.079Z,931.73
2017-03-19T00:06:47.219Z,931.71
2017-03-19T00:07:01.300Z,931.72
2017-03-19T00:07:15.409Z,931.67
2017-03-19T00:07:29.583Z,931.69
2017-03-19T00:07:43.715Z,931.73
2017-03-19T00:07:57.856Z,931.72
2017-03-19T00:08:11.948Z,931.71
2017-03-19T00:08:26.135Z,931.72
2017-03-19T00:08:40.297Z,931.72
2017-03-19T00:08:54.493Z,931.72
2017-03-19T00:09:08.657Z,931.75
2017-03-19T00:09:22.794Z,931.76
2017-03-19T00:09:36.928Z,931.77
2017-03-19T00:09:51.057Z,931.75
2017-03-19T00:10:05.224Z,931.77
2017-03-19T00:10:19.308Z,931.72
2017-03-19T00:10:33.426Z,931.75
2017-03-19T00:10:47.479Z,931.78
2017-03-19T00:11:01.622Z,931.78
2017-03-19T00:11:15.717Z,931.75
2017-03-19T00:11:29.848Z,931.81
2017-03-19T00:11:43.988Z,931.8
2017-03-19T00:11:58.043Z,931.76
2017-03-19T00:12:12.171Z,931.79
2017-03-19T00:12:26.232Z,931.77
2017-03-19T00:12:40.346Z,931.79
2017-03-19T00:12:54.480Z,931.81
2017-03-19T00:13:08.577Z,931.85
2017-03-19T00:13:22.671Z,931.78
2017-03-19T00:13:36.795Z,931.8
2017-03-19T00:13:50.945Z,931.79
2017-03-19T00:14:05.055Z,931.79
2017-03-19T00:14:19.136Z,931.78
2017-03-19T00:14:33.238Z,931.81
2017-03-19T00:14:47.593Z,931.85
2017-03-19T00:15:01.741Z,931.82
2017-03-19T00:15:15.875Z,931.78
2017-03-19T00:15:30.024Z,931.78
2017-03-19T00:15:44.131Z,931.79
2017-03-19T00:15:58.263Z,931.77
2017-03-19T00:16:12.374Z,931.8
2017-03-19T00:16:26.460Z,931.83
2017-03-19T00:16:40.558Z,931.82
2017-03-19T00:16:54.729Z,931.83
2017-03-19T00:17:08.830Z,931.86
2017-03-19T00:17:22.972Z,931.84
2017-03-19T00:17:37.070Z,931.81
2017-03-19T00:17:51.165Z,931.84
2017-03-19T00:18:05.305Z,931.8
2017-03-19T00:18:19.419Z,931.81
2017-03-19T00:18:33.521Z,931.8
2017-03-19T00:18:47.585Z,931.83
2017-03-19T00:19:01.729Z,931.84
2017-03-19T00:19:15.813Z,931.83
2017-03-19T00:19:29.921Z,931.83
2017-03-19T00:19:44.017Z,931.88
2017-03-19T00:19:58.121Z,931.87
2017-03-19T00:20:12.281Z,931.88
2017-03-19T00:20:26.436Z,931.86
2017-03-19T00:20:40.530Z,931.88
2017-03-19T00:20:54.666Z,931.86
2017-03-19T00:21:08.789Z,931.81
2017-03-19T00:21:22.888Z,931.86
2017-03-19T00:21:37.003Z,931.86
2017-03-19T00:21:51.109Z,931.87
2017-03-19T00:22:05.202Z,931.86
2017-03-19T00:22:19.294Z,931.91
2017-03-19T00:22:33.397Z,931.87
2017-03-19T00:22:47.548Z,931.86
2017-03-19T00:23:01.707Z,931.9
2017-03-19T00:23:15.792Z,931.85
2017-03-19T00:23:29.911Z,931.91
2017-03-19T00:23:44.057Z,931.85
2017-03-19T00:23:58.164Z,931.93
2017-03-19T00:24:12.297Z,931.88
2017-03-19T00:24:26.468Z,931.89
2017-03-19T00:24:40.534Z,931.94
2017-03-19T00:24:54.682Z,931.84
2017-03-19T00:25:08.841Z,932.02
2017-03-19T00:25:22.873Z,931.98
2017-03-19T00:25:36.973Z,931.85
2017-03-19T00:25:51.059Z,931.88
2017-03-19T00:26:05.190Z,931.92
2017-03-19T00:26:19.268Z,931.92
2017-03-19T00:26:33.335Z,931.92
2017-03-19T00:26:47.429Z,931.9
2017-03-19T00:27:01.517Z,931.87
2017-03-19T00:27:15.668Z,931.88
2017-03-19T00:27:29.759Z,931.87
2017-03-19T00:27:43.935Z,931.88
2017-03-19T00:27:58.041Z,931.89
2017-03-19T00:28:12.136Z,931.91
2017-03-19T00:28:26.176Z,931.9
2017-03-19T00:28:40.278Z,931.92
2017-03-19T00:28:54.364Z,931.89
2017-03-19T00:29:08.476Z,931.9
2017-03-19T00:29:22.573Z,931.89
2017-03-19T00:29:36.664Z,931.94
2017-03-19T00:29:51.012Z,931.9
2017-03-19T00:30:05.155Z,931.9
2017-03-19T00:30:19.218Z,931.89
2017-03-19T00:30:33.302Z,931.87
2017-03-19T00:30:47.392Z,931.89
2017-03-19T00:31:01.547Z,931.86
2017-03-19T00:31:15.715Z,931.89
2017-03-19T00:31:29.859Z,931.9
2017-03-19T00:31:43.975Z,931.87
2017-03-19T00:31:58.086Z,931.88
2017-03-19T00:32:12.260Z,931.85
2017-03-19T00:32:26.403Z,931.88
2017-03-19T00:32:40.508Z,931.92
2017-03-19T00:32:54.607Z,931.85
2017-03-19T00:33:08.709Z,931.87
2017-03-19T00:33:22.854Z,931.9
2017-03-19T00:33:37.001Z,931.9
2017-03-19T00:33:51.161Z,931.91
2017-03-19T00:34:05.305Z,931.9
2017-03-19T00:34:19.450Z,931.95
2017-03-19T00:34:33.564Z,931.95
2017-03-19T00:34:47.607Z,931.88
2017-03-19T00:35:01.726Z,931.93
2017-03-19T00:35:15.911Z,931.9
2017-03-19T00:35:29.972Z,931.99
2017-03-19T00:35:44.065Z,931.89
2017-03-19T00:35:58.196Z,931.93
2017-03-19T00:36:12.405Z,931.97
2017-03-19T00:36:26.501Z,931.93
2017-03-19T00:36:40.626Z,931.88
2017-03-19T00:36:54.704Z,932
2017-03-19T00:37:08.810Z,931.98
2017-03-19T00:37:22.907Z,931.95
2017-03-19T00:37:36.984Z,931.94
2017-03-19T00:37:51.070Z,931.96
2017-03-19T00:38:05.183Z,932.08
2017-03-19T00:38:19.334Z,931.95
2017-03-19T00:38:33.487Z,931.93
2017-03-19T00:38:47.575Z,931.97
2017-03-19T00:39:01.697Z,931.98
2017-03-19T00:39:15.868Z,931.94
2017-03-19T00:39:29.967Z,932.01
2017-03-19T00:39:44.137Z,931.99
2017-03-19T00:39:58.311Z,931.99
2017-03-19T00:40:12.417Z,932.02
2017-03-19T00:40:26.504Z,931.97
2017-03-19T00:40:40.592Z,931.99
2017-03-19T00:40:54.723Z,932.04
2017-03-19T00:41:08.826Z,932.01
2017-03-19T00:41:22.922Z,931.98
2017-03-19T00:41:37.039Z,931.99
2017-03-19T00:41:51.195Z,931.97
2017-03-19T00:42:05.366Z,931.98
2017-03-19T00:42:19.480Z,932
2017-03-19T00:42:33.596Z,931.96
2017-03-19T00:42:47.758Z,931.97
2017-03-19T00:43:01.864Z,932.01
2017-03-19T00:43:15.953Z,932.03
2017-03-19T00:43:30.072Z,931.98
2017-03-19T00:43:44.206Z,931.96
2017-03-19T00:43:58.365Z,932
2017-03-19T00:44:12.453Z,932.01
2017-03-19T00:44:26.563Z,931.97
2017-03-19T00:44:40.700Z,931.98
2017-03-19T00:44:54.950Z,931.98
2017-03-19T00:45:09.119Z,932
2017-03-19T00:45:23.293Z,931.99
2017-03-19T00:45:37.449Z,931.93
2017-03-19T00:45:51.531Z,931.96
2017-03-19T00:46:05.632Z,931.98
2017-03-19T00:46:19.767Z,932.05
2017-03-19T00:46:33.866Z,931.97
2017-03-19T00:46:47.953Z,931.97
2017-03-19T00:47:02.037Z,931.98
2017-03-19T00:47:16.133Z,931.98
2017-03-19T00:47:30.295Z,931.99
2017-03-19T00:47:44.403Z,931.98
2017-03-19T00:47:58.591Z,931.98
2017-03-19T00:48:12.794Z,931.99
2017-03-19T00:48:26.931Z,931.99
2017-03-19T00:48:41.077Z,932.03
2017-03-19T00:48:55.185Z,932
2017-03-19T00:49:09.300Z,932.01
2017-03-19T00:49:23.415Z,932
2017-03-19T00:49:37.532Z,932.02
2017-03-19T00:49:51.654Z,932.01
2017-03-19T00:50:05.789Z,931.99
2017-03-19T00:50:19.876Z,932.04
2017-03-19T00:50:34.059Z,932.03
2017-03-19T00:50:48.209Z,932.08
2017-03-19T00:51:02.385Z,932.05
2017-03-19T00:51:16.460Z,932.02
2017-03-19T00:51:30.560Z,932.05
2017-03-19T00:51:44.657Z,932.06
2017-03-19T00:51:58.833Z,932.05
2017-03-19T00:52:12.907Z,932.05
2017-03-19T00:52:26.989Z,932.02
2017-03-19T00:52:41.107Z,932.06
2017-03-19T00:52:55.220Z,932.07
2017-03-19T00:53:09.297Z,932.06
2017-03-19T00:53:23.410Z,932.07
2017-03-19T00:53:37.577Z,932.11
2017-03-19T00:53:51.759Z,932.08
2017-03-19T00:54:05.867Z,932.07
2017-03-19T00:54:19.991Z,932.05
2017-03-19T00:54:34.110Z,932.01
2017-03-19T00:54:48.270Z,932.09
2017-03-19T00:55:02.397Z,932.13
2017-03-19T00:55:16.515Z,932.1
2017-03-19T00:55:30.565Z,932.11
2017-03-19T00:55:44.668Z,932.1
2017-03-19T00:55:58.819Z,932.06
2017-03-19T00:56:12.916Z,932.08
2017-03-19T00:56:27.008Z,932.05
2017-03-19T00:56:41.144Z,932.03
2017-03-19T00:56:55.305Z,932.07
2017-03-19T00:57:09.338Z,932.05
2017-03-19T00:57:24.131Z,932.05
2017-03-19T00:57:38.248Z,932.06
2017-03-19T00:57:52.334Z,932.04
2017-03-19T00:58:06.438Z,932.01
2017-03-19T00:58:20.550Z,932.04
2017-03-19T00:58:34.659Z,932.06
2017-03-19T00:58:48.786Z,932.04
2017-03-19T00:59:02.924Z,932.05
2017-03-19T00:59:17.024Z,932.13
2017-03-19T00:59:31.159Z,932.08
2017-03-19T00:59:45.207Z,932.05
2017-03-19T00:59:59.538Z,932.04
2017-03-19T01:00:13.618Z,932.03
2017-03-19T01:00:27.757Z,932.02
2017-03-19T01:00:41.865Z,932.04
2017-03-19T01:00:56.015Z,932.01
2017-03-19T01:01:10.142Z,932.05
2017-03-19T01:01:24.273Z,932.05
2017-03-19T01:01:38.402Z,932.04
2017-03-19T01:01:52.530Z,932.05
2017-03-19T01:02:06.678Z,932.05
2017-03-19T01:02:20.826Z,932.07
2017-03-19T01:02:34.948Z,932.1
2017-03-19T01:02:49.071Z,932.06
2017-03-19T01:03:03.162Z,932.08
2017-03-19T01:03:17.293Z,932.05
2017-03-19T01:03:31.468Z,932.05
2017-03-19T01:03:45.613Z,932.08
2017-03-19T01:03:59.703Z,932.15
2017-03-19T01:04:13.830Z,932.07
2017-03-19T01:04:27.981Z,932.05
2017-03-19T01:04:42.052Z,932.06
2017-03-19T01:04:56.191Z,931.99
2017-03-19T01:05:10.300Z,932.07
2017-03-19T01:05:24.435Z,932.04
2017-03-19T01:05:38.571Z,932.02
2017-03-19T01:05:52.693Z,932.04
2017-03-19T01:06:06.791Z,932.1
2017-03-19T01:06:20.909Z,932.1
2017-03-19T01:06:35.072Z,932.15
2017-03-19T01:06:49.206Z,932.13
2017-03-19T01:07:03.297Z,932.11
2017-03-19T01:07:17.422Z,932.11
2017-03-19T01:07:31.569Z,932.1
2017-03-19T01:07:45.687Z,932.06
2017-03-19T01:07:59.833Z,932.11
2017-03-19T01:08:13.938Z,932.1
2017-03-19T01:08:28.000Z,932.08
2017-03-19T01:08:42.098Z,932.08
2017-03-19T01:08:56.245Z,932.1
2017-03-19T01:09:10.363Z,932.11
2017-03-19T01:09:24.522Z,932.05
2017-03-19T01:09:38.674Z,932.09
2017-03-19T01:09:52.781Z,932.06
2017-03-19T01:10:06.892Z,932.08
2017-03-19T01:10:20.987Z,932.07
2017-03-19T01:10:35.124Z,932.07
2017-03-19T01:10:49.245Z,932.12
2017-03-19T01:11:03.319Z,932.1
2017-03-19T01:11:17.471Z,932.1
2017-03-19T01:11:31.570Z,932.12
2017-03-19T01:11:45.658Z,932.12
2017-03-19T01:11:59.776Z,932.15
2017-03-19T01:12:13.874Z,932.14
2017-03-19T01:12:28.022Z,932.11
2017-03-19T01:12:42.181Z,932.14
2017-03-19T01:12:56.302Z,932.1
2017-03-19T01:13:10.403Z,932.12
2017-03-19T01:13:24.499Z,932.16
2017-03-19T01:13:38.546Z,932.13
2017-03-19T01:13:52.643Z,932.15
2017-03-19T01:14:06.740Z,932.13
2017-03-19T01:14:20.900Z,932.11
2017-03-19T01:14:35.021Z,932.13
2017-03-19T01:14:49.133Z,932.18
2017-03-19T01:15:03.251Z,932.1
2017-03-19T01:15:17.500Z,932.32
2017-03-19T01:15:31.642Z,932.15
2017-03-19T01:15:45.722Z,932.16
2017-03-19T01:15:59.883Z,932.15
2017-03-19T01:16:14.017Z,932.17
2017-03-19T01:16:28.166Z,932.14
2017-03-19T01:16:42.337Z,932.17
2017-03-19T01:16:56.457Z,932.21
2017-03-19T01:17:10.533Z,932.17
2017-03-19T01:17:24.619Z,932.11
2017-03-19T01:17:38.779Z,932.11
2017-03-19T01:17:52.926Z,932.14
2017-03-19T01:18:07.083Z,932.11
2017-03-19T01:18:21.162Z,932.17
2017-03-19T01:18:35.277Z,932.12
2017-03-19T01:18:49.389Z,932.1
2017-03-19T01:19:03.497Z,932.07
2017-03-19T01:19:17.704Z,932.1
2017-03-19T01:19:31.866Z,932.13
2017-03-19T01:19:45.985Z,932.12
2017-03-19T01:20:00.077Z,932.07
2017-03-19T01:20:14.243Z,932.1
2017-03-19T01:20:28.378Z,932.13
2017-03-19T01:20:42.512Z,932.13
2017-03-19T01:20:56.592Z,932.14
2017-03-19T01:21:10.693Z,932.12
2017-03-19T01:21:24.812Z,932.13
2017-03-19T01:21:38.902Z,932.09
2017-03-19T01:21:52.942Z,932.08
2017-03-19T01:22:07.019Z,932.1
2017-03-19T01:22:21.124Z,932.12
2017-03-19T01:22:35.243Z,932.08
2017-03-19T01:22:49.367Z,932.06
2017-03-19T01:23:03.487Z,932.1
2017-03-19T01:23:17.564Z,932.13
2017-03-19T01:23:31.636Z,932.09
2017-03-19T01:23:45.769Z,932.09
2017-03-19T01:23:59.968Z,932.12
2017-03-19T01:24:14.098Z,932.07
2017-03-19T01:24:28.217Z,932.1
2017-03-19T01:24:42.346Z,932.08
2017-03-19T01:24:56.492Z,932.1
2017-03-19T01:25:10.616Z,932.13
2017-03-19T01:25:24.694Z,932.07
2017-03-19T01:25:38.794Z,932.1
2017-03-19T01:25:52.901Z,932.11
2017-03-19T01:26:07.010Z,932.1
2017-03-19T01:26:21.096Z,932.12
2017-03-19T01:26:35.250Z,932.18
2017-03-19T01:26:49.323Z,932.17
2017-03-19T01:27:03.454Z,932.17
2017-03-19T01:27:17.571Z,932.17
2017-03-19T01:27:31.651Z,932.16
2017-03-19T01:27:45.712Z,932.16
2017-03-19T01:27:59.799Z,932.16
2017-03-19T01:28:13.884Z,932.15
2017-03-19T01:28:28.006Z,932.15
2017-03-19T01:28:42.156Z,932.14
2017-03-19T01:28:56.284Z,932.17
2017-03-19T01:29:10.405Z,932.14
2017-03-19T01:29:24.602Z,932.13
2017-03-19T01:29:38.726Z,932.17
2017-03-19T01:29:52.861Z,932.15
2017-03-19T01:30:06.977Z,932.14
2017-03-19T01:30:21.279Z,932.14
2017-03-19T01:30:35.409Z,932.22
2017-03-19T01:30:49.514Z,932.21
2017-03-19T01:31:03.588Z,932.14
2017-03-19T01:31:17.752Z,932.22
2017-03-19T01:31:31.897Z,932.2
2017-03-19T01:31:46.039Z,932.17
2017-03-19T01:32:00.115Z,932.13
2017-03-19T01:32:14.268Z,932.17
2017-03-19T01:32:28.397Z,932.15
2017-03-19T01:32:42.551Z,932.19
2017-03-19T01:32:56.703Z,932.19
2017-03-19T01:33:10.820Z,932.16
2017-03-19T01:33:24.938Z,932.15
2017-03-19T01:33:39.036Z,932.14
2017-03-19T01:33:53.196Z,932.16
2017-03-19T01:34:07.353Z,932.15
2017-03-19T01:34:21.472Z,932.15
2017-03-19T01:34:35.628Z,932.14
2017-03-19T01:34:49.726Z,932.15
2017-03-19T01:35:03.871Z,932.18
2017-03-19T01:35:17.944Z,932.16
2017-03-19T01:35:32.005Z,932.19
2017-03-19T01:35:46.204Z,932.16
2017-03-19T01:36:00.322Z,932.16
2017-03-19T01:36:14.439Z,932.15
2017-03-19T01:36:28.581Z,932.1
2017-03-19T01:36:42.723Z,932.17
2017-03-19T01:36:56.829Z,932.1
2017-03-19T01:37:10.930Z,932.11
2017-03-19T01:37:25.072Z,932.15
2017-03-19T01:37:39.165Z,932.12
2017-03-19T01:37:53.294Z,932.1
2017-03-19T01:38:07.475Z,932.13
2017-03-19T01:38:21.597Z,932.11
2017-03-19T01:38:35.702Z,932.1
2017-03-19T01:38:49.857Z,932.06
2017-03-19T01:39:03.957Z,932.07
2017-03-19T01:39:18.085Z,932.06
2017-03-19T01:39:32.196Z,932.09
2017-03-19T01:39:46.258Z,932.07
2017-03-19T01:40:00.359Z,932.06
2017-03-19T01:40:14.456Z,932.05
2017-03-19T01:40:28.608Z,932.08
2017-03-19T01:40:42.780Z,932.06
2017-03-19T01:40:56.847Z,932.08
2017-03-19T01:41:10.965Z,932.05
2017-03-19T01:41:25.050Z,932.08
2017-03-19T01:41:39.177Z,932.11
2017-03-19T01:41:53.285Z,932.08
2017-03-19T01:42:07.415Z,932.05
2017-03-19T01:42:21.499Z,932.04
2017-03-19T01:42:35.623Z,932.02
2017-03-19T01:42:49.798Z,932.05
2017-03-19T01:43:03.957Z,932.07
2017-03-19T01:43:18.078Z,932.04
2017-03-19T01:43:32.249Z,931.99
2017-03-19T01:43:46.359Z,932.05
2017-03-19T01:44:00.548Z,932.03
2017-03-19T01:44:14.666Z,932.05
2017-03-19T01:44:28.787Z,932.07
2017-03-19T01:44:42.892Z,932.11
2017-03-19T01:44:57.034Z,932.06
2017-03-19T01:45:11.088Z,932.07
2017-03-19T01:45:25.548Z,932.09
2017-03-19T01:45:39.711Z,932.04
2017-03-19T01:45:53.815Z,932.04
2017-03-19T01:46:07.971Z,932.08
2017-03-19T01:46:22.068Z,932.08
2017-03-19T01:46:36.167Z,932.06
2017-03-19T01:46:50.381Z,932.1
2017-03-19T01:47:04.526Z,932.05
2017-03-19T01:47:18.653Z,932.07
2017-03-19T01:47:32.734Z,932.06
2017-03-19T01:47:46.890Z,932.05
2017-03-19T01:48:01.012Z,932.02
2017-03-19T01:48:15.162Z,932.05
2017-03-19T01:48:29.285Z,932.05
2017-03-19T01:48:43.434Z,932.02
2017-03-19T01:48:57.505Z,932.01
2017-03-19T01:49:11.602Z,932.03
2017-03-19T01:49:25.782Z,932.03
2017-03-19T01:49:39.889Z,932.04
2017-03-19T01:49:53.989Z,932.02
2017-03-19T01:50:08.168Z,932.03
2017-03-19T01:50:22.285Z,932.03
2017-03-19T01:50:36.338Z,932.02
2017-03-19T01:50:50.456Z,932.06
2017-03-19T01:51:04.528Z,932.02
2017-03-19T01:51:18.614Z,932.02
2017-03-19T01:51:32.712Z,932.03
2017-03-19T01:51:46.859Z,932.01
2017-03-19T01:52:00.964Z,931.99
2017-03-19T01:52:15.309Z,932.01
2017-03-19T01:52:29.418Z,932.01
2017-03-19T01:52:43.522Z,931.99
2017-03-19T01:52:57.630Z,931.99
2017-03-19T01:53:11.717Z,932
2017-03-19T01:53:25.867Z,932.02
2017-03-19T01:53:39.950Z,932.02
2017-03-19T01:53:54.095Z,932.01
2017-03-19T01:54:08.296Z,932.02
2017-03-19T01:54:22.493Z,932
2017-03-19T01:54:36.583Z,932.06
2017-03-19T01:54:50.655Z,932.06
2017-03-19T01:55:04.754Z,932.03
2017-03-19T01:55:18.859Z,932.02
2017-03-19T01:55:32.970Z,932.03
2017-03-19T01:55:47.142Z,932.04
2017-03-19T01:56:01.279Z,932.05
2017-03-19T01:56:15.434Z,932.07
2017-03-19T01:56:29.551Z,932.07
2017-03-19T01:56:43.654Z,932.08
2017-03-19T01:56:57.776Z,932.04
2017-03-19T01:57:11.911Z,932.04
2017-03-19T01:57:26.024Z,932
2017-03-19T01:57:40.184Z,932.01
2017-03-19T01:57:54.248Z,932.04
2017-03-19T01:58:08.355Z,932.02
2017-03-19T01:58:22.462Z,932.02
2017-03-19T01:58:36.574Z,932.07
2017-03-19T01:58:50.862Z,932.07
2017-03-19T01:59:04.953Z,932.05
2017-03-19T01:59:19.168Z,932.06
2017-03-19T01:59:33.239Z,932
2017-03-19T01:59:47.290Z,932.05
2017-03-19T02:00:01.399Z,932.09
2017-03-19T02:00:15.494Z,932.14
2017-03-19T02:00:29.925Z,932.11
2017-03-19T02:00:44.046Z,932.05
2017-03-19T02:00:58.167Z,932.06
2017-03-19T02:01:12.301Z,932.04
2017-03-19T02:01:26.513Z,932.11
2017-03-19T02:01:40.667Z,932.08
2017-03-19T02:01:54.738Z,932.06
2017-03-19T02:02:08.879Z,932.05
2017-03-19T02:02:23.023Z,932.09
2017-03-19T02:02:37.141Z,932.06
2017-03-19T02:02:51.265Z,932.08
2017-03-19T02:03:05.400Z,932.07
2017-03-19T02:03:19.518Z,932.04
2017-03-19T02:03:33.619Z,932.07
2017-03-19T02:03:47.701Z,932.04
2017-03-19T02:04:01.798Z,932.03
2017-03-19T02:04:15.947Z,932.04
2017-03-19T02:04:30.088Z,932.03
2017-03-19T02:04:44.208Z,932.03
2017-03-19T02:04:58.232Z,932.06
2017-03-19T02:05:12.315Z,932.06
2017-03-19T02:05:26.413Z,932.03
2017-03-19T02:05:40.555Z,932.07
2017-03-19T02:05:54.647Z,932.03
2017-03-19T02:06:08.756Z,932.04
2017-03-19T02:06:22.915Z,932.02
2017-03-19T02:06:37.082Z,932.01
2017-03-19T02:06:51.120Z,932.01
2017-03-19T02:07:05.291Z,932.02
2017-03-19T02:07:19.436Z,932.04
2017-03-19T02:07:33.524Z,932.01
2017-03-19T02:07:47.610Z,932.03
2017-03-19T02:08:01.737Z,932.03
2017-03-19T02:08:15.896Z,932.03
2017-03-19T02:08:29.995Z,932.01
2017-03-19T02:08:44.149Z,931.99
2017-03-19T02:08:58.242Z,931.96
2017-03-19T02:09:12.421Z,932
2017-03-19T02:09:26.540Z,932.02
2017-03-19T02:09:40.647Z,932
2017-03-19T02:09:54.815Z,931.96
2017-03-19T02:10:09.010Z,932.01
2017-03-19T02:10:23.083Z,931.99
2017-03-19T02:10:37.193Z,932.03
2017-03-19T02:10:51.245Z,932.11
2017-03-19T02:11:05.354Z,932.01
2017-03-19T02:11:19.428Z,931.98
2017-03-19T02:11:33.526Z,931.97
2017-03-19T02:11:47.684Z,931.97
2017-03-19T02:12:01.742Z,931.95
2017-03-19T02:12:15.852Z,931.98
2017-03-19T02:12:29.978Z,931.9
2017-03-19T02:12:44.118Z,931.92
2017-03-19T02:12:58.264Z,931.91
2017-03-19T02:13:12.394Z,931.94
2017-03-19T02:13:26.504Z,931.94
2017-03-19T02:13:40.677Z,931.97
2017-03-19T02:13:54.763Z,931.88
2017-03-19T02:14:08.888Z,931.95
2017-03-19T02:14:22.970Z,931.92
2017-03-19T02:14:37.090Z,931.93
2017-03-19T02:14:51.185Z,931.94
2017-03-19T02:15:05.333Z,931.93
2017-03-19T02:15:19.522Z,931.93
2017-03-19T02:15:33.645Z,931.92
2017-03-19T02:15:48.104Z,931.92
2017-03-19T02:16:02.208Z,931.92
2017-03-19T02:16:16.313Z,931.96
2017-03-19T02:16:30.440Z,931.87
2017-03-19T02:16:45.940Z,931.97
2017-03-19T02:17:00.038Z,931.93
2017-03-19T02:17:14.183Z,931.92
2017-03-19T02:17:28.325Z,931.93
2017-03-19T02:17:42.500Z,931.89
2017-03-19T02:17:56.569Z,931.89
2017-03-19T02:18:10.695Z,931.87
2017-03-19T02:18:24.896Z,931.89
2017-03-19T02:18:39.055Z,931.86
2017-03-19T02:18:53.174Z,931.9
2017-03-19T02:19:07.316Z,931.89
2017-03-19T02:19:21.441Z,931.9
2017-03-19T02:19:35.490Z,931.89
2017-03-19T02:19:49.625Z,931.89
2017-03-19T02:20:03.779Z,931.89
2017-03-19T02:20:17.890Z,931.89
2017-03-19T02:20:31.996Z,931.9
2017-03-19T02:20:46.151Z,931.87
2017-03-19T02:21:00.307Z,931.88
2017-03-19T02:21:14.434Z,931.88
2017-03-19T02:21:28.524Z,931.89
2017-03-19T02:21:42.630Z,931.92
2017-03-19T02:21:56.808Z,931.9
2017-03-19T02:22:10.915Z,931.91
2017-03-19T02:22:25.081Z,931.92
2017-03-19T02:22:39.231Z,931.88
2017-03-19T02:22:53.349Z,931.92
2017-03-19T02:23:07.545Z,931.94
2017-03-19T02:23:21.730Z,931.93
2017-03-19T02:23:35.822Z,931.91
2017-03-19T02:23:49.923Z,931.91
2017-03-19T02:24:04.062Z,931.92
2017-03-19T02:24:18.114Z,931.92
2017-03-19T02:24:32.265Z,931.92
2017-03-19T02:24:46.366Z,931.91
2017-03-19T02:25:00.551Z,931.91
2017-03-19T02:25:14.674Z,931.93
2017-03-19T02:25:28.801Z,931.86
2017-03-19T02:25:42.948Z,931.89
2017-03-19T02:25:57.098Z,931.9
2017-03-19T02:26:11.194Z,931.92
2017-03-19T02:26:25.271Z,931.89
2017-03-19T02:26:39.401Z,931.89
2017-03-19T02:26:53.532Z,931.89
2017-03-19T02:27:07.629Z,931.93
2017-03-19T02:27:21.793Z,931.9
2017-03-19T02:27:35.929Z,931.9
2017-03-19T02:27:50.080Z,931.9
2017-03-19T02:28:04.271Z,931.89
2017-03-19T02:28:18.378Z,931.86
2017-03-19T02:28:32.539Z,931.87
2017-03-19T02:28:46.720Z,931.9
2017-03-19T02:29:00.825Z,931.88
2017-03-19T02:29:14.977Z,931.87
2017-03-19T02:29:29.047Z,931.89
2017-03-19T02:29:43.153Z,931.88
2017-03-19T02:29:57.217Z,931.9
2017-03-19T02:30:11.295Z,931.89
2017-03-19T02:30:25.413Z,931.85
2017-03-19T02:30:39.540Z,931.88
2017-03-19T02:30:53.946Z,931.83
2017-03-19T02:31:08.087Z,931.84
2017-03-19T02:31:22.185Z,931.84
2017-03-19T02:31:36.295Z,931.87
2017-03-19T02:31:50.416Z,931.82
2017-03-19T02:32:04.537Z,931.84
2017-03-19T02:32:18.682Z,931.84
2017-03-19T02:32:32.748Z,931.82
2017-03-19T02:32:46.920Z,931.83
2017-03-19T02:33:01.031Z,931.79
2017-03-19T02:33:15.137Z,931.83
2017-03-19T02:33:29.217Z,931.79
2017-03-19T02:33:43.300Z,931.82
2017-03-19T02:33:57.445Z,931.82
2017-03-19T02:34:11.558Z,931.8
2017-03-19T02:34:25.704Z,931.76
2017-03-19T02:34:39.769Z,931.78
2017-03-19T02:34:53.894Z,931.76
2017-03-19T02:35:07.996Z,931.73
2017-03-19T02:35:22.125Z,931.74
2017-03-19T02:35:36.245Z,931.75
2017-03-19T02:35:50.305Z,931.72
2017-03-19T02:36:04.432Z,931.78
2017-03-19T02:36:18.560Z,931.74
2017-03-19T02:36:32.629Z,931.79
2017-03-19T02:36:46.730Z,931.73
2017-03-19T02:37:00.877Z,931.72
2017-03-19T02:37:15.076Z,931.77
2017-03-19T02:37:29.211Z,931.75
2017-03-19T02:37:43.315Z,931.75
2017-03-19T02:37:57.407Z,931.75
2017-03-19T02:38:11.520Z,931.78
2017-03-19T02:38:25.615Z,931.72
2017-03-19T02:38:39.756Z,931.72
2017-03-19T02:38:53.843Z,931.72
2017-03-19T02:39:07.925Z,931.74
2017-03-19T02:39:22.026Z,931.72
2017-03-19T02:39:36.184Z,931.72
2017-03-19T02:39:50.334Z,931.68
2017-03-19T02:40:04.460Z,931.71
2017-03-19T02:40:18.585Z,931.67
2017-03-19T02:40:32.677Z,931.68
2017-03-19T02:40:46.804Z,931.68
2017-03-19T02:41:00.915Z,931.67
2017-03-19T02:41:15.029Z,931.67
2017-03-19T02:41:29.174Z,931.68
2017-03-19T02:41:43.259Z,931.66
2017-03-19T02:41:57.398Z,931.65
2017-03-19T02:42:11.490Z,931.63
2017-03-19T02:42:25.637Z,931.61
2017-03-19T02:42:39.758Z,931.63
2017-03-19T02:42:53.870Z,931.66
2017-03-19T02:43:07.987Z,931.63
2017-03-19T02:43:22.054Z,931.63
2017-03-19T02:43:36.126Z,931.62
2017-03-19T02:43:50.294Z,931.61
2017-03-19T02:44:04.425Z,931.61
2017-03-19T02:44:18.565Z,931.59
2017-03-19T02:44:32.715Z,931.55
2017-03-19T02:44:46.834Z,931.58
2017-03-19T02:45:00.968Z,931.6
2017-03-19T02:45:15.099Z,931.61
2017-03-19T02:45:29.180Z,931.58
2017-03-19T02:45:43.262Z,931.55
2017-03-19T02:45:57.597Z,931.55
2017-03-19T02:46:11.779Z,931.54
2017-03-19T02:46:25.902Z,931.59
2017-03-19T02:46:39.934Z,931.55
2017-03-19T02:46:54.031Z,931.55
2017-03-19T02:47:08.066Z,931.58
2017-03-19T02:47:22.162Z,931.6
2017-03-19T02:47:36.283Z,931.54
2017-03-19T02:47:50.414Z,931.58
2017-03-19T02:48:04.592Z,931.6
2017-03-19T02:48:18.678Z,931.57
2017-03-19T02:48:32.776Z,931.62
2017-03-19T02:48:46.943Z,931.58
2017-03-19T02:49:01.095Z,931.58
2017-03-19T02:49:15.215Z,931.61
2017-03-19T02:49:29.365Z,931.6
2017-03-19T02:49:43.500Z,931.56
2017-03-19T02:49:57.594Z,931.54
2017-03-19T02:50:11.654Z,931.56
2017-03-19T02:50:25.710Z,931.58
2017-03-19T02:50:39.803Z,931.52
2017-03-19T02:50:53.919Z,931.54
2017-03-19T02:51:08.020Z,931.53
2017-03-19T02:51:22.174Z,931.53
2017-03-19T02:51:36.286Z,931.54
2017-03-19T02:51:50.351Z,931.56
2017-03-19T02:52:04.474Z,931.52
2017-03-19T02:52:18.621Z,931.52
2017-03-19T02:52:32.779Z,931.56
2017-03-19T02:52:46.914Z,931.54
2017-03-19T02:53:01.083Z,931.5
2017-03-19T02:53:15.169Z,931.47
2017-03-19T02:53:29.309Z,931.49
2017-03-19T02:53:43.452Z,931.52
2017-03-19T02:53:57.548Z,931.53
2017-03-19T02:54:11.636Z,931.52
2017-03-19T02:54:25.812Z,931.52
2017-03-19T02:54:39.991Z,931.53
2017-03-19T02:54:54.093Z,931.57
2017-03-19T02:55:08.208Z,931.57
2017-03-19T02:55:22.338Z,931.52
2017-03-19T02:55:36.435Z,931.5
2017-03-19T02:55:50.497Z,931.5
2017-03-19T02:56:04.638Z,931.53
2017-03-19T02:56:18.786Z,931.56
2017-03-19T02:56:32.968Z,931.53
2017-03-19T02:56:47.097Z,931.53
2017-03-19T02:57:01.212Z,931.53